Portada
METAR-TAF:

METAR-TAF

Aeroports :

Vereeniging, Sud-àfrica

latitud: 26-34-29S, longitud: 027-57-45E, altitud: 1483 m

Observació

L'informe es va fer fa 3 hores i 14 minuts, a les 15:00 UTC
Vent 10 kt del Oest/Nord-Oest amb ràfegues de 20 kt
Temperatura 29°C
Humitat 18%
Pressió 1019 hPa

METAR: FAVV 201500Z AUTO 29010G20KT //// // ////// 29/02 Q1019

Hora: 20:14 (18:14 UTC)


TAF: manca

Observacions i pronòstics meteorològics de més de 4000 aeroports (METAR i TAF).

Les estacions disponibles són els punts grocs i vermells al mapa.

Posi el ratolí al punt desitjat per veure el nom de l'estació.

Feu clic per veure les observacions i els pronòstics meteorològics.

Per canviar el mapa: feu clic els botons verds amb una creu de color negre per apropar; al botó verd amb un guió per allunyar la imatge; o en les fletxes verdes per a mapes adjacents.


METAR-TAF: